createdAt,value
2018-05-06T00:01:09.081Z,17.80
2018-05-06T00:03:35.950Z,17.80
2018-05-06T00:06:02.797Z,17.80
2018-05-06T00:08:29.647Z,17.80
2018-05-06T00:10:56.615Z,17.80
2018-05-06T00:13:23.572Z,17.80
2018-05-06T00:15:50.411Z,17.80
2018-05-06T00:18:17.289Z,17.90
2018-05-06T00:20:44.144Z,17.80
2018-05-06T00:23:11.033Z,17.80
2018-05-06T00:25:37.956Z,17.80
2018-05-06T00:28:04.797Z,17.80
2018-05-06T00:30:31.753Z,17.90
2018-05-06T00:32:58.549Z,17.90
2018-05-06T00:35:25.397Z,17.80
2018-05-06T00:37:52.264Z,17.80
2018-05-06T00:40:19.131Z,17.60
2018-05-06T00:42:46.056Z,17.60
2018-05-06T00:45:12.956Z,17.60
2018-05-06T00:47:40.004Z,17.50
2018-05-06T00:50:06.939Z,17.60
2018-05-06T00:52:33.897Z,17.60
2018-05-06T00:55:00.740Z,17.60
2018-05-06T00:57:27.694Z,17.60
2018-05-06T00:59:54.582Z,17.60
2018-05-06T01:02:21.420Z,17.50
2018-05-06T01:04:48.266Z,17.50
2018-05-06T01:07:15.241Z,17.60
2018-05-06T01:09:42.102Z,17.60
2018-05-06T01:12:08.948Z,17.50
2018-05-06T01:14:35.808Z,17.60
2018-05-06T01:17:02.811Z,17.40
2018-05-06T01:19:29.660Z,17.40
2018-05-06T01:21:56.589Z,17.50
2018-05-06T01:24:23.532Z,17.40
2018-05-06T01:26:50.372Z,17.40
2018-05-06T01:29:17.259Z,17.40
2018-05-06T01:31:44.134Z,17.30
2018-05-06T01:34:11.068Z,17.30
2018-05-06T01:36:37.948Z,17.20
2018-05-06T01:39:05.599Z,17.10
2018-05-06T01:41:32.448Z,17.10
2018-05-06T01:43:59.422Z,17.10
2018-05-06T01:46:26.267Z,17.10
2018-05-06T01:48:53.106Z,17.10
2018-05-06T01:51:20.372Z,17.00
2018-05-06T01:53:47.681Z,16.90
2018-05-06T01:56:14.543Z,16.90
2018-05-06T01:58:41.394Z,17.00
2018-05-06T02:01:08.238Z,16.90
2018-05-06T02:03:35.070Z,16.90
2018-05-06T02:06:01.970Z,16.90
2018-05-06T02:08:28.820Z,16.90
2018-05-06T02:10:55.669Z,16.90
2018-05-06T02:13:22.548Z,16.80
2018-05-06T02:15:49.383Z,16.70
2018-05-06T02:18:16.240Z,16.70
2018-05-06T02:20:43.204Z,16.70
2018-05-06T02:23:10.077Z,16.70
2018-05-06T02:25:36.954Z,16.70
2018-05-06T02:28:03.825Z,16.70
2018-05-06T02:30:31.076Z,16.70
2018-05-06T02:32:57.928Z,16.70
2018-05-06T02:35:24.851Z,16.60
2018-05-06T02:37:51.690Z,16.60
2018-05-06T02:40:18.535Z,16.60
2018-05-06T02:42:45.838Z,16.60
2018-05-06T02:45:12.821Z,16.60
2018-05-06T02:47:39.681Z,16.60
2018-05-06T02:50:06.612Z,16.60
2018-05-06T02:52:33.459Z,16.70
2018-05-06T02:55:00.311Z,16.70
2018-05-06T02:57:27.196Z,16.70
2018-05-06T02:59:54.027Z,16.60
2018-05-06T03:02:20.892Z,16.60
2018-05-06T03:04:47.752Z,16.60
2018-05-06T03:07:14.659Z,16.60
2018-05-06T03:09:41.516Z,16.60
2018-05-06T03:12:08.393Z,16.60
2018-05-06T03:14:35.639Z,16.50
2018-05-06T03:17:02.950Z,16.60
2018-05-06T03:19:29.913Z,16.60
2018-05-06T03:21:56.775Z,16.40
2018-05-06T03:24:23.731Z,16.40
2018-05-06T03:26:50.599Z,16.40
2018-05-06T03:29:17.447Z,16.40
2018-05-06T03:31:44.293Z,16.40
2018-05-06T03:34:11.245Z,16.30
2018-05-06T03:36:38.115Z,16.30
2018-05-06T03:39:04.978Z,16.30
2018-05-06T03:41:31.836Z,16.20
2018-05-06T03:43:58.778Z,16.10
2018-05-06T03:46:25.647Z,16.10
2018-05-06T03:48:52.497Z,16.10
2018-05-06T03:51:19.357Z,16.00
2018-05-06T03:53:46.233Z,16.00
2018-05-06T03:59:31.966Z,16.00
2018-05-06T04:05:03.180Z,15.90
2018-05-06T04:07:30.104Z,15.80
2018-05-06T04:09:56.976Z,15.80
2018-05-06T04:12:23.945Z,15.70
2018-05-06T04:14:50.785Z,15.80
2018-05-06T04:17:17.659Z,15.80
2018-05-06T04:19:44.675Z,15.80
2018-05-06T04:22:11.962Z,15.80
2018-05-06T04:24:38.854Z,15.80
2018-05-06T04:27:05.686Z,15.80
2018-05-06T04:29:32.558Z,15.80
2018-05-06T04:31:59.429Z,15.90
2018-05-06T04:34:26.359Z,15.90
2018-05-06T04:36:53.210Z,15.90
2018-05-06T04:39:20.078Z,15.90
2018-05-06T04:41:46.930Z,15.80
2018-05-06T04:44:13.847Z,15.80
2018-05-06T04:46:40.750Z,15.90
2018-05-06T04:49:07.725Z,16.00
2018-05-06T04:51:34.610Z,15.90
2018-05-06T04:54:01.518Z,15.90
2018-05-06T04:56:28.380Z,15.90
2018-05-06T04:58:55.236Z,15.80
2018-05-06T05:01:22.083Z,15.80
2018-05-06T05:03:48.952Z,15.80
2018-05-06T05:06:15.930Z,15.90
2018-05-06T05:08:42.819Z,16.00
2018-05-06T05:11:09.729Z,16.10
2018-05-06T05:13:36.718Z,16.20
2018-05-06T05:16:03.563Z,16.30
2018-05-06T05:18:30.506Z,16.20
2018-05-06T05:20:57.516Z,16.30
2018-05-06T05:23:24.293Z,16.40
2018-05-06T05:25:51.160Z,16.40
2018-05-06T05:28:18.033Z,16.50
2018-05-06T05:30:44.902Z,16.50
2018-05-06T05:33:11.804Z,16.50
2018-05-06T05:35:39.089Z,16.60
2018-05-06T05:38:06.343Z,16.70
2018-05-06T05:40:33.609Z,16.80
2018-05-06T05:43:00.447Z,16.80
2018-05-06T05:45:27.776Z,16.80
2018-05-06T05:47:54.713Z,16.80
2018-05-06T05:50:21.481Z,16.80
2018-05-06T05:52:48.434Z,16.90
2018-05-06T05:55:15.274Z,17.00
2018-05-06T05:57:42.190Z,17.20
2018-05-06T06:00:09.038Z,17.20
2018-05-06T06:02:35.922Z,17.20
2018-05-06T06:05:03.232Z,17.20
2018-05-06T06:07:30.083Z,17.20
2018-05-06T06:09:56.955Z,17.30
2018-05-06T06:12:23.799Z,17.30
2018-05-06T06:14:50.643Z,17.40
2018-05-06T06:17:17.624Z,17.50
2018-05-06T06:19:44.551Z,17.50
2018-05-06T06:22:11.431Z,17.60
2018-05-06T06:24:38.331Z,17.50
2018-05-06T06:27:05.145Z,17.50
2018-05-06T06:29:31.994Z,17.60
2018-05-06T06:31:58.897Z,17.70
2018-05-06T06:34:25.811Z,17.70
2018-05-06T06:36:52.673Z,17.70
2018-05-06T06:39:19.632Z,17.80
2018-05-06T06:41:46.487Z,17.80
2018-05-06T06:44:13.330Z,17.90
2018-05-06T06:46:40.309Z,18.00
2018-05-06T06:49:07.160Z,18.10
2018-05-06T06:51:34.036Z,18.20
2018-05-06T06:54:00.888Z,18.20
2018-05-06T06:56:27.733Z,18.30
2018-05-06T06:58:54.602Z,18.30
2018-05-06T07:01:21.452Z,18.40
2018-05-06T07:03:48.300Z,18.30
2018-05-06T07:06:15.163Z,18.30
2018-05-06T07:08:42.021Z,18.40
2018-05-06T07:11:08.893Z,18.50
2018-05-06T07:13:35.824Z,18.50
2018-05-06T07:16:02.684Z,18.40
2018-05-06T07:18:29.551Z,18.40
2018-05-06T07:20:56.418Z,18.40
2018-05-06T07:23:23.350Z,18.50
2018-05-06T07:25:50.215Z,18.60
2018-05-06T07:28:17.080Z,18.70
2018-05-06T07:30:43.949Z,18.80
2018-05-06T07:33:11.092Z,19.00
2018-05-06T07:35:38.010Z,19.10
2018-05-06T07:38:05.251Z,19.30
2018-05-06T07:40:32.108Z,19.30
2018-05-06T07:42:59.022Z,19.40
2018-05-06T07:45:25.978Z,19.20
2018-05-06T07:47:52.826Z,19.20
2018-05-06T07:50:19.790Z,19.30
2018-05-06T07:52:47.045Z,19.40
2018-05-06T07:55:13.909Z,19.40
2018-05-06T07:57:40.890Z,19.30
2018-05-06T08:00:07.778Z,19.40
2018-05-06T08:02:34.624Z,19.60
2018-05-06T08:05:01.661Z,19.70
2018-05-06T08:07:28.876Z,20.00
2018-05-06T08:09:55.721Z,20.00
2018-05-06T08:12:22.667Z,20.00
2018-05-06T08:14:49.525Z,20.00
2018-05-06T08:17:16.507Z,20.20
2018-05-06T08:19:43.364Z,20.40
2018-05-06T08:22:10.406Z,20.60
2018-05-06T08:24:37.258Z,21.00
2018-05-06T08:27:04.099Z,21.00
2018-05-06T08:29:30.961Z,21.10
2018-05-06T08:31:57.845Z,21.00
2018-05-06T08:34:24.755Z,20.80
2018-05-06T08:36:51.722Z,20.70
2018-05-06T08:39:18.668Z,20.80
2018-05-06T08:41:45.512Z,21.00
2018-05-06T08:44:12.369Z,21.00
2018-05-06T08:46:39.657Z,21.40
2018-05-06T08:49:07.786Z,21.40
2018-05-06T08:51:34.744Z,21.40
2018-05-06T08:54:02.080Z,21.60
2018-05-06T08:56:29.076Z,21.50
2018-05-06T08:58:57.439Z,21.50
2018-05-06T09:01:24.344Z,21.40
2018-05-06T09:03:51.283Z,21.40
2018-05-06T09:06:18.163Z,21.40
2018-05-06T09:08:45.466Z,21.50
2018-05-06T09:11:12.365Z,21.50
2018-05-06T09:13:39.266Z,21.60
2018-05-06T09:16:06.136Z,21.60
2018-05-06T09:18:33.081Z,21.70
2018-05-06T09:20:59.955Z,21.70
2018-05-06T09:23:26.903Z,21.80
2018-05-06T09:25:53.765Z,21.90
2018-05-06T09:28:20.623Z,21.90
2018-05-06T09:30:47.603Z,21.80
2018-05-06T09:33:14.477Z,21.80
2018-05-06T09:35:41.335Z,21.80
2018-05-06T09:38:08.250Z,21.90
2018-05-06T09:40:35.160Z,22.00
2018-05-06T09:43:02.056Z,22.10
2018-05-06T09:45:29.331Z,22.20
2018-05-06T09:47:56.389Z,22.20
2018-05-06T09:50:23.184Z,22.20
2018-05-06T09:52:50.055Z,22.00
2018-05-06T09:55:17.075Z,21.90
2018-05-06T09:57:43.944Z,21.80
2018-05-06T10:00:10.792Z,21.80
2018-05-06T10:02:37.667Z,22.00
2018-05-06T10:05:04.580Z,22.20
2018-05-06T10:07:31.899Z,22.40
2018-05-06T10:09:58.925Z,22.40
2018-05-06T10:12:25.819Z,22.50
2018-05-06T10:14:52.721Z,22.60
2018-05-06T10:17:19.668Z,22.70
2018-05-06T10:19:46.936Z,22.80
2018-05-06T10:22:14.284Z,22.80
2018-05-06T10:24:41.201Z,22.80
2018-05-06T10:27:08.169Z,22.70
2018-05-06T10:29:35.166Z,22.70
2018-05-06T10:32:02.086Z,22.80
2018-05-06T10:34:28.964Z,22.60
2018-05-06T10:36:55.836Z,22.70
2018-05-06T10:39:22.718Z,22.90
2018-05-06T10:41:49.955Z,22.80
2018-05-06T10:44:16.877Z,22.80
2018-05-06T10:46:43.792Z,22.90
2018-05-06T10:49:11.083Z,22.90
2018-05-06T10:51:37.913Z,22.90
2018-05-06T10:54:05.147Z,22.80
2018-05-06T10:56:32.071Z,22.80
2018-05-06T10:58:59.056Z,22.70
2018-05-06T11:01:25.935Z,22.70
2018-05-06T11:03:52.791Z,22.70
2018-05-06T11:06:19.711Z,22.90
2018-05-06T11:08:46.567Z,22.90
2018-05-06T11:11:13.424Z,22.90
2018-05-06T11:13:40.282Z,23.20
2018-05-06T11:16:07.171Z,23.40
2018-05-06T11:18:34.028Z,23.60
2018-05-06T11:21:00.911Z,23.60
2018-05-06T11:23:27.754Z,23.70
2018-05-06T11:25:54.691Z,23.70
2018-05-06T11:28:21.628Z,23.70
2018-05-06T11:30:48.552Z,23.80
2018-05-06T11:33:15.821Z,23.80
2018-05-06T11:35:43.092Z,23.80
2018-05-06T11:38:10.407Z,24.00
2018-05-06T11:40:37.285Z,24.00
2018-05-06T11:43:04.166Z,24.10
2018-05-06T11:45:31.478Z,24.40
2018-05-06T11:47:58.505Z,24.40
2018-05-06T11:50:25.384Z,24.40
2018-05-06T11:52:52.256Z,24.40
2018-05-06T11:55:19.108Z,24.40
2018-05-06T11:57:46.070Z,24.50
2018-05-06T12:00:12.940Z,24.60
2018-05-06T12:02:39.872Z,24.60
2018-05-06T12:05:06.739Z,24.70
2018-05-06T12:07:33.691Z,24.70
2018-05-06T12:10:00.537Z,24.80
2018-05-06T12:12:27.530Z,24.90
2018-05-06T12:14:54.385Z,24.80
2018-05-06T12:17:21.330Z,24.80
2018-05-06T12:19:48.300Z,24.90
2018-05-06T12:22:15.183Z,24.90
2018-05-06T12:24:42.062Z,25.10
2018-05-06T12:27:09.317Z,25.20
2018-05-06T12:29:36.574Z,25.10
2018-05-06T12:32:03.461Z,25.10
2018-05-06T12:34:30.303Z,25.20
2018-05-06T12:36:57.627Z,25.20
2018-05-06T12:39:24.679Z,25.20
2018-05-06T12:41:51.548Z,25.20
2018-05-06T12:44:18.445Z,25.10
2018-05-06T12:46:45.712Z,25.40
2018-05-06T12:49:13.050Z,25.40
2018-05-06T12:51:39.974Z,25.40
2018-05-06T12:54:06.830Z,25.40
2018-05-06T12:56:33.691Z,25.40
2018-05-06T12:59:00.660Z,25.40
2018-05-06T13:01:27.536Z,25.40
2018-05-06T13:03:54.471Z,25.30
2018-05-06T13:06:21.343Z,25.40
2018-05-06T13:08:48.206Z,25.60
2018-05-06T13:11:15.053Z,25.70
2018-05-06T13:13:41.989Z,25.70
2018-05-06T13:16:08.851Z,25.90
2018-05-06T13:18:35.806Z,25.80
2018-05-06T13:21:02.656Z,25.80
2018-05-06T13:23:29.638Z,25.80
2018-05-06T13:25:56.523Z,25.70
2018-05-06T13:28:23.447Z,25.80
2018-05-06T13:30:50.404Z,25.80
2018-05-06T13:33:17.252Z,25.80
2018-05-06T13:35:44.098Z,25.70
2018-05-06T13:38:10.964Z,25.80
2018-05-06T13:40:37.933Z,25.80
2018-05-06T13:43:04.778Z,25.90
2018-05-06T13:45:31.659Z,25.80
2018-05-06T13:47:58.536Z,25.80
2018-05-06T13:50:25.418Z,25.90
2018-05-06T13:52:52.320Z,26.00
2018-05-06T13:55:19.281Z,26.00
2018-05-06T13:57:46.151Z,26.10
2018-05-06T14:00:13.031Z,26.10
2018-05-06T14:02:39.900Z,26.00
2018-05-06T14:05:06.759Z,25.90
2018-05-06T14:07:33.634Z,25.80
2018-05-06T14:10:01.022Z,26.10
2018-05-06T14:12:27.920Z,26.10
2018-05-06T14:14:54.784Z,26.20
2018-05-06T14:17:21.646Z,26.30
2018-05-06T14:19:48.590Z,26.30
2018-05-06T14:22:15.556Z,26.30
2018-05-06T14:24:42.511Z,26.10
2018-05-06T14:27:09.343Z,26.00
2018-05-06T14:29:36.295Z,25.90
2018-05-06T14:32:03.272Z,26.10
2018-05-06T14:34:30.123Z,26.40
2018-05-06T14:36:56.992Z,26.50
2018-05-06T14:39:23.952Z,26.50
2018-05-06T14:41:50.799Z,26.60
2018-05-06T14:44:17.665Z,26.60
2018-05-06T14:46:56.514Z,26.50
2018-05-06T14:49:23.366Z,26.50
2018-05-06T14:54:34.661Z,26.30
2018-05-06T14:57:01.493Z,26.40
2018-05-06T14:59:28.752Z,26.90
2018-05-06T15:01:56.048Z,27.10
2018-05-06T15:04:22.906Z,27.10
2018-05-06T15:06:49.797Z,27.10
2018-05-06T15:09:16.684Z,27.10
2018-05-06T15:11:43.612Z,26.90
2018-05-06T15:14:10.478Z,26.70
2018-05-06T15:16:37.404Z,26.50
2018-05-06T15:19:04.279Z,26.40
2018-05-06T15:21:31.174Z,26.50
2018-05-06T15:23:58.461Z,27.10
2018-05-06T15:26:25.708Z,27.20
2018-05-06T15:28:52.658Z,27.20
2018-05-06T15:31:19.511Z,27.30
2018-05-06T15:33:46.415Z,27.50
2018-05-06T15:36:13.293Z,27.50
2018-05-06T15:38:40.142Z,27.60
2018-05-06T15:41:07.037Z,27.60
2018-05-06T15:43:33.967Z,27.70
2018-05-06T15:46:00.813Z,27.80
2018-05-06T15:48:27.883Z,27.70
2018-05-06T15:50:54.755Z,27.20
2018-05-06T15:53:21.687Z,27.20
2018-05-06T15:55:48.655Z,27.60
2018-05-06T15:58:15.512Z,27.70
2018-05-06T16:00:42.495Z,27.40
2018-05-06T16:03:21.261Z,27.30
2018-05-06T16:05:48.117Z,27.40
2018-05-06T16:08:15.052Z,27.70
2018-05-06T16:10:41.998Z,28.00
2018-05-06T16:13:08.934Z,28.20
2018-05-06T16:15:36.235Z,28.00
2018-05-06T16:18:03.176Z,28.00
2018-05-06T16:20:30.035Z,27.90
2018-05-06T16:22:56.997Z,27.80
2018-05-06T16:25:23.938Z,28.30
2018-05-06T16:27:50.797Z,28.70
2018-05-06T16:30:17.658Z,29.60
2018-05-06T16:32:44.794Z,30.40
2018-05-06T16:35:12.027Z,32.00
2018-05-06T16:37:38.959Z,32.00
2018-05-06T16:40:05.830Z,32.20
2018-05-06T16:42:32.750Z,32.30
2018-05-06T16:44:59.719Z,32.50
2018-05-06T16:47:26.572Z,32.50
2018-05-06T16:49:53.427Z,32.50
2018-05-06T16:52:20.281Z,32.50
2018-05-06T16:54:47.155Z,32.60
2018-05-06T16:57:14.064Z,32.50
2018-05-06T16:59:41.162Z,32.80
2018-05-06T17:02:08.499Z,32.60
2018-05-06T17:04:35.748Z,32.80
2018-05-06T17:07:02.607Z,32.80
2018-05-06T17:09:29.443Z,33.00
2018-05-06T17:11:56.298Z,33.20
2018-05-06T17:14:23.225Z,32.80
2018-05-06T17:16:50.088Z,32.50
2018-05-06T17:19:16.933Z,32.60
2018-05-06T17:21:43.835Z,32.50
2018-05-06T17:24:10.721Z,32.30
2018-05-06T17:26:37.983Z,32.20
2018-05-06T17:29:04.863Z,32.20
2018-05-06T17:31:32.086Z,32.40
2018-05-06T17:33:59.016Z,32.40
2018-05-06T17:36:25.877Z,32.60
2018-05-06T17:38:52.738Z,32.80
2018-05-06T17:41:19.615Z,33.10
2018-05-06T17:43:46.570Z,33.40
2018-05-06T17:46:13.490Z,33.30
2018-05-06T17:48:40.363Z,32.80
2018-05-06T17:51:07.199Z,32.30
2018-05-06T17:53:34.042Z,31.60
2018-05-06T17:56:01.560Z,30.70
2018-05-06T17:58:28.422Z,30.70
2018-05-06T18:00:55.307Z,30.40
2018-05-06T18:03:22.314Z,30.20
2018-05-06T18:05:49.167Z,29.90
2018-05-06T18:08:16.019Z,29.70
2018-05-06T18:10:42.870Z,29.50
2018-05-06T18:13:10.106Z,28.30
2018-05-06T18:15:36.955Z,28.30
2018-05-06T18:18:03.828Z,27.70
2018-05-06T18:20:30.663Z,27.40
2018-05-06T18:22:57.534Z,27.10
2018-05-06T18:25:24.443Z,26.60
2018-05-06T18:27:51.287Z,26.40
2018-05-06T18:30:18.350Z,26.30
2018-05-06T18:32:45.205Z,26.00
2018-05-06T18:35:12.122Z,25.40
2018-05-06T18:37:39.041Z,25.00
2018-05-06T18:40:05.924Z,24.40
2018-05-06T18:42:32.847Z,24.20
2018-05-06T18:44:59.798Z,24.00
2018-05-06T18:47:26.654Z,23.80
2018-05-06T18:49:53.551Z,23.40
2018-05-06T18:52:20.407Z,23.30
2018-05-06T18:54:47.299Z,23.20
2018-05-06T18:57:14.616Z,23.00
2018-05-06T18:59:41.473Z,23.00
2018-05-06T19:02:08.323Z,22.80
2018-05-06T19:04:35.190Z,22.80
2018-05-06T19:07:02.041Z,22.80
2018-05-06T19:09:28.919Z,22.80
2018-05-06T19:11:55.778Z,22.70
2018-05-06T19:14:22.727Z,22.60
2018-05-06T19:16:49.579Z,22.60
2018-05-06T19:19:16.444Z,22.50
2018-05-06T19:21:43.275Z,22.30
2018-05-06T19:24:10.138Z,22.20
2018-05-06T19:26:37.002Z,22.20
2018-05-06T19:29:03.839Z,22.10
2018-05-06T19:31:30.807Z,22.10
2018-05-06T19:33:57.666Z,22.10
2018-05-06T19:36:24.513Z,22.00
2018-05-06T19:38:51.391Z,22.10
2018-05-06T19:41:18.228Z,22.00
2018-05-06T19:43:45.199Z,22.00
2018-05-06T19:46:12.145Z,21.90
2018-05-06T19:48:39.039Z,21.80
2018-05-06T19:51:05.863Z,21.80
2018-05-06T19:53:32.722Z,21.70
2018-05-06T19:55:59.666Z,21.70
2018-05-06T19:58:26.558Z,21.70
2018-05-06T20:00:53.904Z,21.60
2018-05-06T20:03:21.215Z,21.50
2018-05-06T20:05:48.206Z,21.50
2018-05-06T20:08:15.468Z,21.30
2018-05-06T20:10:42.782Z,21.20
2018-05-06T20:13:09.617Z,21.20
2018-05-06T20:15:36.544Z,21.10
2018-05-06T20:18:03.397Z,21.00
2018-05-06T20:20:30.263Z,21.10
2018-05-06T20:22:57.503Z,21.20
2018-05-06T20:25:24.367Z,21.20
2018-05-06T20:27:51.238Z,21.10
2018-05-06T20:30:18.085Z,21.00
2018-05-06T20:32:44.951Z,21.00
2018-05-06T20:35:12.487Z,20.80
2018-05-06T20:37:39.348Z,20.80
2018-05-06T20:40:06.212Z,20.70
2018-05-06T20:42:33.105Z,20.70
2018-05-06T20:45:00.411Z,20.60
2018-05-06T20:47:27.264Z,20.60
2018-05-06T20:49:54.226Z,20.60
2018-05-06T20:52:21.127Z,20.60
2018-05-06T20:54:47.983Z,20.60
2018-05-06T20:57:14.883Z,20.60
2018-05-06T20:59:41.852Z,20.50
2018-05-06T21:02:08.702Z,20.40
2018-05-06T21:04:35.554Z,20.40
2018-05-06T21:07:02.409Z,20.40
2018-05-06T21:09:29.262Z,20.40
2018-05-06T21:11:56.130Z,20.50
2018-05-06T21:14:23.036Z,20.40
2018-05-06T21:16:49.880Z,20.40
2018-05-06T21:19:16.737Z,20.30
2018-05-06T21:21:43.569Z,20.30
2018-05-06T21:24:10.440Z,20.30
2018-05-06T21:26:37.292Z,20.20
2018-05-06T21:29:04.207Z,20.10
2018-05-06T21:31:31.055Z,20.10
2018-05-06T21:33:58.386Z,19.90
2018-05-06T21:36:25.239Z,19.90
2018-05-06T21:38:52.111Z,19.90
2018-05-06T21:41:19.037Z,19.90
2018-05-06T21:43:45.881Z,19.80
2018-05-06T21:46:12.749Z,19.80
2018-05-06T21:48:39.617Z,19.90
2018-05-06T21:51:06.571Z,19.80
2018-05-06T21:53:33.405Z,19.80
2018-05-06T21:56:00.502Z,19.70
2018-05-06T21:58:27.454Z,19.70
2018-05-06T22:00:54.319Z,19.70
2018-05-06T22:03:21.166Z,19.70
2018-05-06T22:05:48.028Z,19.70
2018-05-06T22:08:15.004Z,19.60
2018-05-06T22:10:41.859Z,19.60
2018-05-06T22:13:08.778Z,19.50
2018-05-06T22:15:35.625Z,19.50
2018-05-06T22:18:03.515Z,19.40
2018-05-06T22:20:30.351Z,19.40
2018-05-06T22:22:57.641Z,19.30
2018-05-06T22:25:24.933Z,19.30
2018-05-06T22:27:51.775Z,19.30
2018-05-06T22:30:18.735Z,19.30
2018-05-06T22:32:45.601Z,19.30
2018-05-06T22:35:12.556Z,19.20
2018-05-06T22:37:39.424Z,19.20
2018-05-06T22:40:06.286Z,19.10
2018-05-06T22:42:33.135Z,19.00
2018-05-06T22:45:00.082Z,19.00
2018-05-06T22:47:27.042Z,19.00
2018-05-06T22:49:53.881Z,19.10
2018-05-06T22:52:20.731Z,19.00
2018-05-06T22:54:48.027Z,18.80
2018-05-06T22:57:14.898Z,18.80
2018-05-06T22:59:41.752Z,18.80
2018-05-06T23:02:08.585Z,18.90
2018-05-06T23:04:35.430Z,18.80
2018-05-06T23:07:02.323Z,18.80
2018-05-06T23:09:29.153Z,18.90
2018-05-06T23:11:56.009Z,18.90
2018-05-06T23:14:22.877Z,18.80
2018-05-06T23:16:49.721Z,18.80
2018-05-06T23:19:16.591Z,18.80
2018-05-06T23:21:43.503Z,18.80
2018-05-06T23:24:10.291Z,18.80
2018-05-06T23:26:37.353Z,18.80
2018-05-06T23:29:04.095Z,18.80
2018-05-06T23:31:31.399Z,18.80
2018-05-06T23:33:58.259Z,18.80
2018-05-06T23:36:25.134Z,18.70
2018-05-06T23:38:52.065Z,18.60
2018-05-06T23:41:18.933Z,18.60
2018-05-06T23:43:45.923Z,18.60
2018-05-06T23:46:12.874Z,18.60
2018-05-06T23:48:39.807Z,18.70
2018-05-06T23:51:06.748Z,18.70
2018-05-06T23:53:34.032Z,18.40
2018-05-06T23:56:00.867Z,18.40
2018-05-06T23:58:27.766Z,18.40
